Marigola — IBEL — position and weather

sailwx.info

Track history (hours):
 
Tides and Currents Weather Stations Pressure Air Temp Water Temp Dewpoint Dewpoint Depression Visibility Wind Speed Wind Dir Waves Ship Positions

Marigola

Last reported at 2017-Aug-03 12:51 UTC. Time now 2017-Nov-21 12:16 UTC.
Position N 09°50' W 079°34'.
Warning: this ship's position is months out of date.

Length 145 m; draft 6.4 m.

Type: Ship (hazmat cat A). MMSI: 247567000.

Date/timePositionNaut miles runAvg speedWind from/ knotsBaromVisibWave heightAir tempDewpointWater temp
2017-Aug-03 12:51N 09°50' W 079°34'612.9
2017-Aug-03 12:25N 09°46' W 079°39'713.2
2017-Aug-03 11:55N 09°41' W 079°43'513.3
2017-Aug-03 11:30N 09°37' W 079°46'612.7
2017-Aug-03 11:00N 09°31' W 079°50'612.0
2017-Aug-03 10:30N 09°27' W 079°54'5 9.6
2017-Aug-03 10:01N 09°22' W 079°55'4 8.3
2017-Aug-03 09:30N 09°18' W 079°55'2 3.2
2017-Aug-03 09:00N 09°17' W 079°55'0 0.7
2017-Aug-03 08:30N 09°16' W 079°55'0 0.9
2017-Aug-03 08:00N 09°16' W 079°55'2 3.4
2017-Aug-03 07:30N 09°14' W 079°55'4 8.0
2017-Aug-03 07:00N 09°11' W 079°53'5 8.8
2017-Aug-03 06:27N 09°08' W 079°49'  
Track history (hours):
 
Tides and Currents Weather Stations Pressure Air Temp Water Temp Dewpoint Dewpoint Depression Visibility Wind Speed Wind Dir Waves Ship Positions

Marigola

Last reported at 2017-Aug-03 12:51 UTC. Time now 2017-Nov-21 12:16 UTC.
Position N 09°50' W 079°34'.
Warning: this ship's position is months out of date.

Length 145 m; draft 6.4 m.

Type: Ship (hazmat cat A). MMSI: 247567000.

Date/timePositionNaut miles runAvg speedWind from/ knotsBaromVisibWave heightAir tempDewpointWater temp
2017-Aug-03 12:51N 09°50' W 079°34'612.9
2017-Aug-03 12:25N 09°46' W 079°39'713.2
2017-Aug-03 11:55N 09°41' W 079°43'513.3
2017-Aug-03 11:30N 09°37' W 079°46'612.7
2017-Aug-03 11:00N 09°31' W 079°50'612.0
2017-Aug-03 10:30N 09°27' W 079°54'5 9.6
2017-Aug-03 10:01N 09°22' W 079°55'4 8.3
2017-Aug-03 09:30N 09°18' W 079°55'2 3.2
2017-Aug-03 09:00N 09°17' W 079°55'0 0.7
2017-Aug-03 08:30N 09°16' W 079°55'0 0.9
2017-Aug-03 08:00N 09°16' W 079°55'2 3.4
2017-Aug-03 07:30N 09°14' W 079°55'4 8.0
2017-Aug-03 07:00N 09°11' W 079°53'5 8.8
2017-Aug-03 06:27N 09°08' W 079°49'  

Dump ship's entire track history